sensor_id;sensor_type;location;lat;lon;timestamp;P1;P2;P0
74430;PMS7003;62863;52.062;23.764;2023-09-30T00:01:08;28;26;18.8
74430;PMS7003;62863;52.062;23.764;2023-09-30T00:05:30;30.2;28.4;20.4
74430;PMS7003;62863;52.062;23.764;2023-09-30T00:10:50;28.8;27.6;19.4
74430;PMS7003;62863;52.062;23.764;2023-09-30T00:15:24;29.8;25.2;18.4
74430;PMS7003;62863;52.062;23.764;2023-09-30T00:20:50;28.4;25.2;18.4
74430;PMS7003;62863;52.062;23.764;2023-09-30T00:26:04;30.4;26.6;19.4
74430;PMS7003;62863;52.062;23.764;2023-09-30T00:30:42;29.6;25.6;19.2
74430;PMS7003;62863;52.062;23.764;2023-09-30T00:35:50;32.4;29.4;21.2
74430;PMS7003;62863;52.062;23.764;2023-09-30T00:40:24;30.8;28.4;20
74430;PMS7003;62863;52.062;23.764;2023-09-30T00:45:24;32.8;29.3;21.5
74430;PMS7003;62863;52.062;23.764;2023-09-30T00:51:04;36.8;32.2;21.8
74430;PMS7003;62863;52.062;23.764;2023-09-30T00:55:30;36.4;32.4;21.8
74430;PMS7003;62863;52.062;23.764;2023-09-30T01:00:24;31.4;27;19.4
74430;PMS7003;62863;52.062;23.764;2023-09-30T01:05:42;31.6;26.6;19.2
74430;PMS7003;62863;52.062;23.764;2023-09-30T01:10:38;31.4;28.2;19
74430;PMS7003;62863;52.062;23.764;2023-09-30T01:16:04;32.8;27.4;19.4
74430;PMS7003;62863;52.062;23.764;2023-09-30T01:20:42;28.6;24.6;18
74430;PMS7003;62863;52.062;23.764;2023-09-30T01:25:50;32.6;28.8;21
74430;PMS7003;62863;52.062;23.764;2023-09-30T01:30:40;31.4;26.6;19
74430;PMS7003;62863;52.062;23.764;2023-09-30T01:35:36;30.6;27.4;19.4
74430;PMS7003;62863;52.062;23.764;2023-09-30T01:41:04;27.6;25.8;18.4
74430;PMS7003;62863;52.062;23.764;2023-09-30T01:45:24;31;28;19.8
74430;PMS7003;62863;52.062;23.764;2023-09-30T01:50:32;29.8;27.8;19.8
74430;PMS7003;62863;52.062;23.764;2023-09-30T01:55:36;31;27.2;19.4
74430;PMS7003;62863;52.062;23.764;2023-09-30T02:00:38;30.4;27;19
74430;PMS7003;62863;52.062;23.764;2023-09-30T02:06:04;28.4;26.2;17.6
74430;PMS7003;62863;52.062;23.764;2023-09-30T02:10:34;26.8;25;18.4
74430;PMS7003;62863;52.062;23.764;2023-09-30T02:15:32;32.6;26.8;18.8
74430;PMS7003;62863;52.062;23.764;2023-09-30T02:20:42;31;27.8;19.2
74430;PMS7003;62863;52.062;23.764;2023-09-30T02:25:36;27.8;25.2;16.8
74430;PMS7003;62863;52.062;23.764;2023-09-30T02:31:04;32;27.8;19.8
74430;PMS7003;62863;52.062;23.764;2023-09-30T02:35:48;27.4;26.8;18.6
74430;PMS7003;62863;52.062;23.764;2023-09-30T02:40:36;29.8;26.8;19
74430;PMS7003;62863;52.062;23.764;2023-09-30T02:46:02;27.8;26;18.5
74430;PMS7003;62863;52.062;23.764;2023-09-30T02:50:30;28.4;25.8;18.4
74430;PMS7003;62863;52.062;23.764;2023-09-30T02:56:02;30.6;26.4;18.4
74430;PMS7003;62863;52.062;23.764;2023-09-30T03:01:04;33.2;26.6;19.6
74430;PMS7003;62863;52.062;23.764;2023-09-30T03:05:50;27.4;26.2;18
74430;PMS7003;62863;52.062;23.764;2023-09-30T03:10:50;34;28;19.6
74430;PMS7003;62863;52.062;23.764;2023-09-30T03:15:24;31.4;27.2;19.2
74430;PMS7003;62863;52.062;23.764;2023-09-30T03:20:50;28.8;27;18.8
74430;PMS7003;62863;52.062;23.764;2023-09-30T03:25:24;29.2;26.2;19.6
74430;PMS7003;62863;52.062;23.764;2023-09-30T03:30:30;31;25.2;17.8
74430;PMS7003;62863;52.062;23.764;2023-09-30T03:36:02;29;25.4;18.4
74430;PMS7003;62863;52.062;23.764;2023-09-30T03:40:40;32.6;27.8;20
74430;PMS7003;62863;52.062;23.764;2023-09-30T03:46:04;31.3;28.5;21
74430;PMS7003;62863;52.062;23.764;2023-09-30T03:51:08;29.8;25.2;17
74430;PMS7003;62863;52.062;23.764;2023-09-30T03:55:50;28.4;24.6;19.2
74430;PMS7003;62863;52.062;23.764;2023-09-30T04:00:50;29.4;25.4;18
74430;PMS7003;62863;52.062;23.764;2023-09-30T04:05:30;30.6;27;18.8
74430;PMS7003;62863;52.062;23.764;2023-09-30T04:10:50;30.8;26.4;19.8
74430;PMS7003;62863;52.062;23.764;2023-09-30T04:16:04;31.2;26.4;18.6
74430;PMS7003;62863;52.062;23.764;2023-09-30T04:20:30;33;28.4;20.4
74430;PMS7003;62863;52.062;23.764;2023-09-30T04:26:04;30.4;26.6;19.6
74430;PMS7003;62863;52.062;23.764;2023-09-30T04:30:42;29.4;25.8;18.6
74430;PMS7003;62863;52.062;23.764;2023-09-30T04:36:05;27.4;25.2;17.6
74430;PMS7003;62863;52.062;23.764;2023-09-30T04:41:04;33;29;19.8
74430;PMS7003;62863;52.062;23.764;2023-09-30T04:45:50;32.2;28.4;20.2
74430;PMS7003;62863;52.062;23.764;2023-09-30T04:50:51;34.5;31.3;21.5
74430;PMS7003;62863;52.062;23.764;2023-09-30T04:55:36;35;32.2;22.2
74430;PMS7003;62863;52.062;23.764;2023-09-30T05:00:48;30.8;26.8;18
74430;PMS7003;62863;52.062;23.764;2023-09-30T05:05:36;34;28.6;19
74430;PMS7003;62863;52.062;23.764;2023-09-30T05:10:30;32;28.2;20
74430;PMS7003;62863;52.062;23.764;2023-09-30T05:15:54;34;30.8;21.3
74430;PMS7003;62863;52.062;23.764;2023-09-30T05:20:24;35.8;31;21
74430;PMS7003;62863;52.062;23.764;2023-09-30T05:26:04;30.8;27.6;20
74430;PMS7003;62863;52.062;23.764;2023-09-30T05:31:02;30;24.8;15.6
74430;PMS7003;62863;52.062;23.764;2023-09-30T05:36:02;30.2;27.4;18.8
74430;PMS7003;62863;52.062;23.764;2023-09-30T05:40:48;28.5;25.8;18.5
74430;PMS7003;62863;52.062;23.764;2023-09-30T05:45:36;31.2;28.8;19.8
74430;PMS7003;62863;52.062;23.764;2023-09-30T05:50:50;34;30.8;20.8
74430;PMS7003;62863;52.062;23.764;2023-09-30T05:55:30;29;26.2;18
74430;PMS7003;62863;52.062;23.764;2023-09-30T06:00:30;27;25.2;17.8
74430;PMS7003;62863;52.062;23.764;2023-09-30T06:06:09;33.8;30.2;19.8
74430;PMS7003;62863;52.062;23.764;2023-09-30T06:10:43;31.4;27.2;19.2
74430;PMS7003;62863;52.062;23.764;2023-09-30T06:16:04;31.4;27.8;19
74430;PMS7003;62863;52.062;23.764;2023-09-30T06:21:00;27.2;24;17
74430;PMS7003;62863;52.062;23.764;2023-09-30T06:25:48;30.4;26.8;18.4
74430;PMS7003;62863;52.062;23.764;2023-09-30T06:30:39;36;31;21
74430;PMS7003;62863;52.062;23.764;2023-09-30T06:35:36;38.6;32;21.4
74430;PMS7003;62863;52.062;23.764;2023-09-30T06:40:56;38;31.3;21
74430;PMS7003;62863;52.062;23.764;2023-09-30T06:45:24;31;28;19
74430;PMS7003;62863;52.062;23.764;2023-09-30T06:50:30;28.2;25.2;18
74430;PMS7003;62863;52.062;23.764;2023-09-30T06:55:56;26.4;22.4;16.2
74430;PMS7003;62863;52.062;23.764;2023-09-30T07:00:43;27.6;25.2;17.4
74430;PMS7003;62863;52.062;23.764;2023-09-30T07:06:04;23.6;22.8;15.8
74430;PMS7003;62863;52.062;23.764;2023-09-30T07:10:56;27;23.6;16.6
74430;PMS7003;62863;52.062;23.764;2023-09-30T07:16:04;25.4;24;16.4
74430;PMS7003;62863;52.062;23.764;2023-09-30T07:21:04;24.4;21.2;15.8
74430;PMS7003;62863;52.062;23.764;2023-09-30T07:25:36;23.8;21;16.2
74430;PMS7003;62863;52.062;23.764;2023-09-30T07:30:30;23.8;22.4;16.4
74430;PMS7003;62863;52.062;23.764;2023-09-30T07:35:24;23;21.6;15.8
74430;PMS7003;62863;52.062;23.764;2023-09-30T07:40:50;24.8;22.5;16.3
74430;PMS7003;62863;52.062;23.764;2023-09-30T07:45:44;25.8;23;15.8
74430;PMS7003;62863;52.062;23.764;2023-09-30T07:50:30;28.2;24.6;17.2
74430;PMS7003;62863;52.062;23.764;2023-09-30T07:56:04;22;19.8;14.6
74430;PMS7003;62863;52.062;23.764;2023-09-30T08:00:56;25;24;17.2
74430;PMS7003;62863;52.062;23.764;2023-09-30T08:06:03;24.8;22.4;16.6
74430;PMS7003;62863;52.062;23.764;2023-09-30T08:11:02;20.8;19.6;14.8
74430;PMS7003;62863;52.062;23.764;2023-09-30T08:15:24;21.2;20;14.8
74430;PMS7003;62863;52.062;23.764;2023-09-30T08:20:24;22.4;20.2;13.8
74430;PMS7003;62863;52.062;23.764;2023-09-30T08:25:40;21;18.2;13.2
74430;PMS7003;62863;52.062;23.764;2023-09-30T08:30:32;17.4;17.4;13.8
74430;PMS7003;62863;52.062;23.764;2023-09-30T08:35:54;20.4;18.2;13.2
74430;PMS7003;62863;52.062;23.764;2023-09-30T08:40:40;22.3;19.8;13.5
74430;PMS7003;62863;52.062;23.764;2023-09-30T08:46:02;19.4;17.6;13
74430;PMS7003;62863;52.062;23.764;2023-09-30T08:50:33;20.4;18.2;13.2
74430;PMS7003;62863;52.062;23.764;2023-09-30T08:56:00;19;17.2;13.4
74430;PMS7003;62863;52.062;23.764;2023-09-30T09:01:03;21;19.4;13.6
74430;PMS7003;62863;52.062;23.764;2023-09-30T09:05:30;21.2;20.2;14.8
74430;PMS7003;62863;52.062;23.764;2023-09-30T09:10:25;25.2;21.8;15.2
74430;PMS7003;62863;52.062;23.764;2023-09-30T09:15:25;24.4;22;15.2
74430;PMS7003;62863;52.062;23.764;2023-09-30T09:20:25;22.4;20.8;15.4
74430;PMS7003;62863;52.062;23.764;2023-09-30T09:25:55;22;20.2;14.2
74430;PMS7003;62863;52.062;23.764;2023-09-30T09:30:33;22.8;20.8;15.2
74430;PMS7003;62863;52.062;23.764;2023-09-30T09:36:03;23.2;20.8;15
74430;PMS7003;62863;52.062;23.764;2023-09-30T09:40:58;23.3;20.5;13.8
74430;PMS7003;62863;52.062;23.764;2023-09-30T09:46:01;21.2;20.6;14.6
74430;PMS7003;62863;52.062;23.764;2023-09-30T09:51:05;20.8;19.8;14.6
74430;PMS7003;62863;52.062;23.764;2023-09-30T09:55:37;22;20.4;14
74430;PMS7003;62863;52.062;23.764;2023-09-30T10:00:31;19.2;18;12.6
74430;PMS7003;62863;52.062;23.764;2023-09-30T10:05:25;17.6;16.4;12.4
74430;PMS7003;62863;52.062;23.764;2023-09-30T10:10:31;17.2;15.6;11
74430;PMS7003;62863;52.062;23.764;2023-09-30T10:15:55;11.4;11;8
74430;PMS7003;62863;52.062;23.764;2023-09-30T10:20:43;10.6;9.8;7.6
74430;PMS7003;62863;52.062;23.764;2023-09-30T10:26:20;11.8;10.4;7.4
74430;PMS7003;62863;52.062;23.764;2023-09-30T10:31:11;11.4;9.2;7
74430;PMS7003;62863;52.062;23.764;2023-09-30T10:36:01;10.6;9.6;7.2
74430;PMS7003;62863;52.062;23.764;2023-09-30T10:41:05;10.8;9.8;6.8
74430;PMS7003;62863;52.062;23.764;2023-09-30T10:45:44;13.5;11;8
74430;PMS7003;62863;52.062;23.764;2023-09-30T10:50:57;11.4;10.6;8.4
74430;PMS7003;62863;52.062;23.764;2023-09-30T10:55:25;12.6;11.2;8.2
74430;PMS7003;62863;52.062;23.764;2023-09-30T11:00:31;13.4;11.2;8.6
74430;PMS7003;62863;52.062;23.764;2023-09-30T11:05:57;12.4;11;9
74430;PMS7003;62863;52.062;23.764;2023-09-30T11:10:46;13.4;11.2;7.8
74430;PMS7003;62863;52.062;23.764;2023-09-30T11:16:03;12.6;11.4;8.4
74430;PMS7003;62863;52.062;23.764;2023-09-30T11:21:05;16.8;14.2;10.4
74430;PMS7003;62863;52.062;23.764;2023-09-30T11:25:49;12;9.8;7
74430;PMS7003;62863;52.062;23.764;2023-09-30T11:31:03;14.2;12.8;9.6
74430;PMS7003;62863;52.062;23.764;2023-09-30T11:35:56;12;11.6;8
74430;PMS7003;62863;52.062;23.764;2023-09-30T11:40:25;12.2;11.8;8.6
74430;PMS7003;62863;52.062;23.764;2023-09-30T11:45:25;13.8;11.5;8.5
74430;PMS7003;62863;52.062;23.764;2023-09-30T11:50:44;15.6;12.6;9.2
74430;PMS7003;62863;52.062;23.764;2023-09-30T11:56:03;12;10.4;8
74430;PMS7003;62863;52.062;23.764;2023-09-30T12:00:41;14.4;12.6;9.6
74430;PMS7003;62863;52.062;23.764;2023-09-30T12:05:43;13.8;12.6;9
74430;PMS7003;62863;52.062;23.764;2023-09-30T12:10:55;13.8;12;9.6
74430;PMS7003;62863;52.062;23.764;2023-09-30T12:15:49;14.8;13;9
74430;PMS7003;62863;52.062;23.764;2023-09-30T12:21:03;16.8;15.8;11.8
74430;PMS7003;62863;52.062;23.764;2023-09-30T12:25:51;18.8;17;12.4
74430;PMS7003;62863;52.062;23.764;2023-09-30T12:30:31;17;14.4;10.4
74430;PMS7003;62863;52.062;23.764;2023-09-30T12:35:25;18.2;16;11.2
74430;PMS7003;62863;52.062;23.764;2023-09-30T12:40:33;21.4;17.4;12.6
74430;PMS7003;62863;52.062;23.764;2023-09-30T12:46:03;18.5;18;13
74430;PMS7003;62863;52.062;23.764;2023-09-30T12:50:25;21.2;19;14
74430;PMS7003;62863;52.062;23.764;2023-09-30T12:55:41;21.8;19.4;14
74430;PMS7003;62863;52.062;23.764;2023-09-30T13:00:55;22.2;20.4;14.4
74430;PMS7003;62863;52.062;23.764;2023-09-30T13:05:45;24;21.2;14.6
74430;PMS7003;62863;52.062;23.764;2023-09-30T13:10:51;29.8;25.6;16.8
74430;PMS7003;62863;52.062;23.764;2023-09-30T13:15:49;24.6;22.2;15.4
74430;PMS7003;62863;52.062;23.764;2023-09-30T13:20:25;24.4;21.6;15.2
74430;PMS7003;62863;52.062;23.764;2023-09-30T13:26:01;21;20.2;15.6
74430;PMS7003;62863;52.062;23.764;2023-09-30T13:30:41;20.2;19.2;14.4
74430;PMS7003;62863;52.062;23.764;2023-09-30T13:36:05;20.6;17.8;13
74430;PMS7003;62863;52.062;23.764;2023-09-30T13:40:35;22.4;18.6;13.8
74430;PMS7003;62863;52.062;23.764;2023-09-30T13:45:43;23;19.3;14.8
74430;PMS7003;62863;52.062;23.764;2023-09-30T13:50:27;20.6;19;13.4
74430;PMS7003;62863;52.062;23.764;2023-09-30T13:55:51;19.8;17.2;12.4
74430;PMS7003;62863;52.062;23.764;2023-09-30T14:01:03;21.8;17.4;13
74430;PMS7003;62863;52.062;23.764;2023-09-30T14:05:49;19;17.6;12.8
74430;PMS7003;62863;52.062;23.764;2023-09-30T14:10:37;18.6;17;12
74430;PMS7003;62863;52.062;23.764;2023-09-30T14:15:25;18;17;12.8
74430;PMS7003;62863;52.062;23.764;2023-09-30T14:20:25;20.6;17.6;13.2
74430;PMS7003;62863;52.062;23.764;2023-09-30T14:26:05;20.2;18.8;13.6
74430;PMS7003;62863;52.062;23.764;2023-09-30T14:30:41;22.4;20;15
74430;PMS7003;62863;52.062;23.764;2023-09-30T14:35:41;23;20.2;14.6
74430;PMS7003;62863;52.062;23.764;2023-09-30T14:40:53;22.4;19.2;14.4
74430;PMS7003;62863;52.062;23.764;2023-09-30T14:45:49;23.5;21.3;15
74430;PMS7003;62863;52.062;23.764;2023-09-30T14:51:03;20.8;18.4;12.4
74430;PMS7003;62863;52.062;23.764;2023-09-30T14:55:49;23.6;20.4;14
74430;PMS7003;62863;52.062;23.764;2023-09-30T15:00:25;25.2;21.6;14.8
74430;PMS7003;62863;52.062;23.764;2023-09-30T15:05:25;23.2;20.8;14.6
74430;PMS7003;62863;52.062;23.764;2023-09-30T15:10:41;27;25.2;17.4
74430;PMS7003;62863;52.062;23.764;2023-09-30T15:16:03;26.6;24.4;17.2
74430;PMS7003;62863;52.062;23.764;2023-09-30T15:20:25;27.4;22.4;15.8
74430;PMS7003;62863;52.062;23.764;2023-09-30T15:25:41;12.8;11.2;8.8
74430;PMS7003;62863;52.062;23.764;2023-09-30T15:30:53;9.2;7.8;6
74430;PMS7003;62863;52.062;23.764;2023-09-30T15:35:51;3.8;3.6;3
74430;PMS7003;62863;52.062;23.764;2023-09-30T15:41:04;3.6;3.2;2.4
74430;PMS7003;62863;52.062;23.764;2023-09-30T15:45:25;4.6;3.8;2.8
74430;PMS7003;62863;52.062;23.764;2023-09-30T15:50:25;3;2.8;2.3
74430;PMS7003;62863;52.062;23.764;2023-09-30T15:55:35;4.6;4;3.4
74430;PMS7003;62863;52.062;23.764;2023-09-30T16:00:41;5.2;3.6;2.4
74430;PMS7003;62863;52.062;23.764;2023-09-30T16:06:03;5;3.8;2.4
74430;PMS7003;62863;52.062;23.764;2023-09-30T16:11:03;4;3;2.6
74430;PMS7003;62863;52.062;23.764;2023-09-30T16:15:41;4;3.2;2.2
74430;PMS7003;62863;52.062;23.764;2023-09-30T16:20:55;5.2;4;2.6
74430;PMS7003;62863;52.062;23.764;2023-09-30T16:25:49;3.6;3.6;2.6
74430;PMS7003;62863;52.062;23.764;2023-09-30T16:31:05;5.8;5.2;3.8
74430;PMS7003;62863;52.062;23.764;2023-09-30T16:35:25;7;5.6;4.2
74430;PMS7003;62863;52.062;23.764;2023-09-30T16:40:31;6;4.8;3.6
74430;PMS7003;62863;52.062;23.764;2023-09-30T16:45:25;5.8;5;2.8
74430;PMS7003;62863;52.062;23.764;2023-09-30T16:50:35;4;3.8;2.8
74430;PMS7003;62863;52.062;23.764;2023-09-30T16:56:03;4.6;3.8;2.8
74430;PMS7003;62863;52.062;23.764;2023-09-30T17:00:55;4.2;3.8;3
74430;PMS7003;62863;52.062;23.764;2023-09-30T17:06:03;5.4;3.8;3
74430;PMS7003;62863;52.062;23.764;2023-09-30T17:10:55;6.2;5;3.4
74430;PMS7003;62863;52.062;23.764;2023-09-30T17:15:49;5;4.6;3.8
74430;PMS7003;62863;52.062;23.764;2023-09-30T17:20:27;7.4;5.8;4.2
74430;PMS7003;62863;52.062;23.764;2023-09-30T17:25:58;7.4;6;3.6
74430;PMS7003;62863;52.062;23.764;2023-09-30T17:30:37;5;4;2.6
74430;PMS7003;62863;52.062;23.764;2023-09-30T17:35:26;4.8;4;3
74430;PMS7003;62863;52.062;23.764;2023-09-30T17:40:35;6.4;5.4;3.6
74430;PMS7003;62863;52.062;23.764;2023-09-30T17:46:10;4.6;3.6;2.8
74430;PMS7003;62863;52.062;23.764;2023-09-30T17:50:55;6.8;6.3;4.5
74430;PMS7003;62863;52.062;23.764;2023-09-30T17:55:25;5.2;4.6;3.6
74430;PMS7003;62863;52.062;23.764;2023-09-30T18:00:55;6;4.4;3.6
74430;PMS7003;62863;52.062;23.764;2023-09-30T18:05:49;4.6;4.4;3.6
74430;PMS7003;62863;52.062;23.764;2023-09-30T18:11:03;4.4;4.4;3.4
74430;PMS7003;62863;52.062;23.764;2023-09-30T18:15:37;6.2;5.6;4.2
74430;PMS7003;62863;52.062;23.764;2023-09-30T18:20:25;6.4;5.2;3.8
74430;PMS7003;62863;52.062;23.764;2023-09-30T18:25:25;6.6;5.4;4.4
74430;PMS7003;62863;52.062;23.764;2023-09-30T18:30:41;6.8;5.6;3.6
74430;PMS7003;62863;52.062;23.764;2023-09-30T18:36:06;6;5.2;3.4
74430;PMS7003;62863;52.062;23.764;2023-09-30T18:40:53;5.2;5;3.4
74430;PMS7003;62863;52.062;23.764;2023-09-30T18:45:43;7.4;5.8;4.2
74430;PMS7003;62863;52.062;23.764;2023-09-30T18:50:44;6.5;5.3;3.8
74430;PMS7003;62863;52.062;23.764;2023-09-30T18:55:43;5.6;4.2;3.2
74430;PMS7003;62863;52.062;23.764;2023-09-30T19:00:55;6.8;5.2;3.6
74430;PMS7003;62863;52.062;23.764;2023-09-30T19:05:25;5.2;4.8;3.6
74430;PMS7003;62863;52.062;23.764;2023-09-30T19:10:25;8;5.8;4.2
74430;PMS7003;62863;52.062;23.764;2023-09-30T19:15:31;7.2;6.4;4.6
74430;PMS7003;62863;52.062;23.764;2023-09-30T19:20:42;7;6;4
74430;PMS7003;62863;52.062;23.764;2023-09-30T19:26:03;5.4;5.4;4
74430;PMS7003;62863;52.062;23.764;2023-09-30T19:30:55;7.8;5.2;3.8
74430;PMS7003;62863;52.062;23.764;2023-09-30T19:35:39;6.2;5.4;4.2
74430;PMS7003;62863;52.062;23.764;2023-09-30T19:40:57;7.6;5.4;4
74430;PMS7003;62863;52.062;23.764;2023-09-30T19:45:57;5.6;5;3.8
74430;PMS7003;62863;52.062;23.764;2023-09-30T19:50:45;6.5;6;4.3
74430;PMS7003;62863;52.062;23.764;2023-09-30T19:55:31;6.6;4.4;3.2
74430;PMS7003;62863;52.062;23.764;2023-09-30T20:00:25;6.2;5;3.6
74430;PMS7003;62863;52.062;23.764;2023-09-30T20:05:51;6.4;4.8;4
74430;PMS7003;62863;52.062;23.764;2023-09-30T20:11:05;5.4;4.8;3.6
74430;PMS7003;62863;52.062;23.764;2023-09-30T20:15:51;5.2;4.6;3
74430;PMS7003;62863;52.062;23.764;2023-09-30T20:20:33;5.6;5;3.8
74430;PMS7003;62863;52.062;23.764;2023-09-30T20:25:43;6.8;5.2;3.8
74430;PMS7003;62863;52.062;23.764;2023-09-30T20:31:05;6.4;5;3.8
74430;PMS7003;62863;52.062;23.764;2023-09-30T20:36:05;6.2;5.4;3.6
74430;PMS7003;62863;52.062;23.764;2023-09-30T20:40:25;4.2;4.2;3.4
74430;PMS7003;62863;52.062;23.764;2023-09-30T20:45:32;7;4.6;3.8
74430;PMS7003;62863;52.062;23.764;2023-09-30T20:50:25;6.2;5.2;4.2
74430;PMS7003;62863;52.062;23.764;2023-09-30T20:55:45;5;4.3;3.3
74430;PMS7003;62863;52.062;23.764;2023-09-30T21:01:05;5.6;4.6;3.4
74430;PMS7003;62863;52.062;23.764;2023-09-30T21:05:51;4.8;3.8;2.4
74430;PMS7003;62863;52.062;23.764;2023-09-30T21:10:51;6.6;4.8;3.4
74430;PMS7003;62863;52.062;23.764;2023-09-30T21:15:25;5.8;4.8;3.6
74430;PMS7003;62863;52.062;23.764;2023-09-30T21:20:25;6.6;4.6;3.4
74430;PMS7003;62863;52.062;23.764;2023-09-30T21:26:05;6.2;5.2;4
74430;PMS7003;62863;52.062;23.764;2023-09-30T21:30:31;6;4.8;3.6
74430;PMS7003;62863;52.062;23.764;2023-09-30T21:35:35;7;5.4;4.2
74430;PMS7003;62863;52.062;23.764;2023-09-30T21:40:45;7;5.8;4.2
74430;PMS7003;62863;52.062;23.764;2023-09-30T21:45:49;6.4;5.2;4.4
74430;PMS7003;62863;52.062;23.764;2023-09-30T21:51:03;5.4;4.8;3
74430;PMS7003;62863;52.062;23.764;2023-09-30T21:55:51;5.8;4.8;3.8
74430;PMS7003;62863;52.062;23.764;2023-09-30T22:00:51;6;4.8;3.4
74430;PMS7003;62863;52.062;23.764;2023-09-30T22:05:25;6.2;4.8;3.4
74430;PMS7003;62863;52.062;23.764;2023-09-30T22:10:37;6.4;5.2;3.8
74430;PMS7003;62863;52.062;23.764;2023-09-30T22:16:03;6.8;4.8;3.6
74430;PMS7003;62863;52.062;23.764;2023-09-30T22:20:31;5;4.2;3.4
74430;PMS7003;62863;52.062;23.764;2023-09-30T22:25:31;6;4.8;3.8
74430;PMS7003;62863;52.062;23.764;2023-09-30T22:30:25;6.2;4.8;3.8
74430;PMS7003;62863;52.062;23.764;2023-09-30T22:35:51;7.2;4.6;3.6
74430;PMS7003;62863;52.062;23.764;2023-09-30T22:41:05;7.8;6.6;5
74430;PMS7003;62863;52.062;23.764;2023-09-30T22:46:03;7.2;6.6;4.8
74430;PMS7003;62863;52.062;23.764;2023-09-30T22:50:51;6.4;5.2;4.4
74430;PMS7003;62863;52.062;23.764;2023-09-30T22:55:25;5.8;4.3;3.5
74430;PMS7003;62863;52.062;23.764;2023-09-30T23:00:39;8;6;4.4
74430;PMS7003;62863;52.062;23.764;2023-09-30T23:06:05;9.2;6.4;4.8
74430;PMS7003;62863;52.062;23.764;2023-09-30T23:10:31;7.6;6.6;4.6
74430;PMS7003;62863;52.062;23.764;2023-09-30T23:15:31;7.2;6.2;4.8
74430;PMS7003;62863;52.062;23.764;2023-09-30T23:20:43;7.2;5.2;4
74430;PMS7003;62863;52.062;23.764;2023-09-30T23:26:06;7.6;6.6;5
74430;PMS7003;62863;52.062;23.764;2023-09-30T23:30:35;8;7.4;4.8
74430;PMS7003;62863;52.062;23.764;2023-09-30T23:35:45;8.2;7.4;5
74430;PMS7003;62863;52.062;23.764;2023-09-30T23:40:51;9.6;8;4.8
74430;PMS7003;62863;52.062;23.764;2023-09-30T23:45:43;8.2;7;4.6
74430;PMS7003;62863;52.062;23.764;2023-09-30T23:50:37;8.4;6.6;4.6
74430;PMS7003;62863;52.062;23.764;2023-09-30T23:56:03;8.3;6.5;5
